Ronnie Rogers — WDD2270 — position and weather

sailwx.info

Track history (hours):
 
Tides and Currents Weather Stations Pressure Air Temp Water Temp Dewpoint Dewpoint Depression Visibility Wind Speed Wind Dir Waves Ship Positions

Ronnie Rogers

Owner: Florida Marine, LLC, Mandeville, LA. More information available from US FCC via Universal Licensing System and Coast Guard Vessel Documentation Center.

Last reported at 2017-Mar-02 16:33 UTC. Time now 2017-Mar-23 02:12 UTC.
Position N 29°57' W 093°10'.
Warning: this ship's position is 20 days out of date.

Length 27 m; draft 2.4 m.

Type: Towing. MMSI: 367113160.

Date/timePositionNaut miles runAvg speedWind from/ knotsBaromVisibWave heightAir tempDewpointWater temp
2017-Mar-02 16:33N 29°57' W 093°10'6 6.0
2017-Mar-02 15:33N 30°01' W 093°14'4 3.9
2017-Mar-02 14:33N 30°05' W 093°17'3 2.5
2017-Mar-02 13:33N 30°06' W 093°19'0 0.0
2017-Mar-02 12:33N 30°06' W 093°19'3 2.6
2017-Mar-02 11:34N 30°04' W 093°21'6 5.7
2017-Mar-02 10:34N 30°04' W 093°28'81 5.3
2017-Mar-01 19:17N 29°26' W 094°50'7 9.3
2017-Mar-01 18:33N 29°32' W 094°54'8 8.3
2017-Mar-01 17:33N 29°39' W 094°58'7 6.9
2017-Mar-01 16:33N 29°44' W 095°04'5 4.9
2017-Mar-01 15:33N 29°44' W 095°09'2 2.4
2017-Mar-01 14:32N 29°44' W 095°12'0 0.0
2017-Mar-01 13:30N 29°44' W 095°12'0 0.0
2017-Feb-28 23:22N 29°44' W 095°12'0 0.0
2017-Feb-28 22:33N 29°44' W 095°12'0 0.0
2017-Feb-28 21:32N 29°44' W 095°12'0 0.0
2017-Feb-28 20:31N 29°44' W 095°12'0 0.0
2017-Feb-28 19:33N 29°44' W 095°12'1 0.7
2017-Feb-28 18:24N 29°45' W 095°11'3 3.6
2017-Feb-28 17:27N 29°44' W 095°07'4 2.2
2017-Feb-28 15:23N 29°47' W 095°04'2 0.9
2017-Feb-28 13:33N 29°46' W 095°05'0 0.0
2017-Feb-27 22:34N 29°46' W 095°05'0 0.0
2017-Feb-27 21:27N 29°46' W 095°05'1 1.5
2017-Feb-27 20:33N 29°47' W 095°04'3 1.6
2017-Feb-27 18:31N 29°45' W 095°06'  
2017-Feb-22 08:07N 29°46' W 095°06'1 0.4
2017-Feb-22 06:16N 29°46' W 095°05'1 0.5
2017-Feb-22 04:04N 29°47' W 095°05'  
Track history (hours):
 
Tides and Currents Weather Stations Pressure Air Temp Water Temp Dewpoint Dewpoint Depression Visibility Wind Speed Wind Dir Waves Ship Positions

Ronnie Rogers

Owner: Florida Marine, LLC, Mandeville, LA. More information available from US FCC via Universal Licensing System and Coast Guard Vessel Documentation Center.

Last reported at 2017-Mar-02 16:33 UTC. Time now 2017-Mar-23 02:12 UTC.
Position N 29°57' W 093°10'.
Warning: this ship's position is 20 days out of date.

Length 27 m; draft 2.4 m.

Type: Towing. MMSI: 367113160.

Date/timePositionNaut miles runAvg speedWind from/ knotsBaromVisibWave heightAir tempDewpointWater temp
2017-Mar-02 16:33N 29°57' W 093°10'6 6.0
2017-Mar-02 15:33N 30°01' W 093°14'4 3.9
2017-Mar-02 14:33N 30°05' W 093°17'3 2.5
2017-Mar-02 13:33N 30°06' W 093°19'0 0.0
2017-Mar-02 12:33N 30°06' W 093°19'3 2.6
2017-Mar-02 11:34N 30°04' W 093°21'6 5.7
2017-Mar-02 10:34N 30°04' W 093°28'81 5.3
2017-Mar-01 19:17N 29°26' W 094°50'7 9.3
2017-Mar-01 18:33N 29°32' W 094°54'8 8.3
2017-Mar-01 17:33N 29°39' W 094°58'7 6.9
2017-Mar-01 16:33N 29°44' W 095°04'5 4.9
2017-Mar-01 15:33N 29°44' W 095°09'2 2.4
2017-Mar-01 14:32N 29°44' W 095°12'0 0.0
2017-Mar-01 13:30N 29°44' W 095°12'0 0.0
2017-Feb-28 23:22N 29°44' W 095°12'0 0.0
2017-Feb-28 22:33N 29°44' W 095°12'0 0.0
2017-Feb-28 21:32N 29°44' W 095°12'0 0.0
2017-Feb-28 20:31N 29°44' W 095°12'0 0.0
2017-Feb-28 19:33N 29°44' W 095°12'1 0.7
2017-Feb-28 18:24N 29°45' W 095°11'3 3.6
2017-Feb-28 17:27N 29°44' W 095°07'4 2.2
2017-Feb-28 15:23N 29°47' W 095°04'2 0.9
2017-Feb-28 13:33N 29°46' W 095°05'0 0.0
2017-Feb-27 22:34N 29°46' W 095°05'0 0.0
2017-Feb-27 21:27N 29°46' W 095°05'1 1.5
2017-Feb-27 20:33N 29°47' W 095°04'3 1.6
2017-Feb-27 18:31N 29°45' W 095°06'  
2017-Feb-22 08:07N 29°46' W 095°06'1 0.4
2017-Feb-22 06:16N 29°46' W 095°05'1 0.5
2017-Feb-22 04:04N 29°47' W 095°05'  

Dump ship's entire track history